sensor_id;sensor_type;location;lat;lon;timestamp;P1;durP1;ratioP1;P2;durP2;ratioP2
82479;SDS011;72105;46.112;12.902;2023-12-22T00:00:05;11.80;;;7.85;;
82479;SDS011;72105;46.112;12.902;2023-12-22T00:02:32;11.82;;;7.20;;
82479;SDS011;72105;46.112;12.902;2023-12-22T00:04:58;12.45;;;6.45;;
82479;SDS011;72105;46.112;12.902;2023-12-22T00:07:25;7.75;;;5.70;;
82479;SDS011;72105;46.112;12.902;2023-12-22T00:09:51;9.57;;;6.88;;
82479;SDS011;72105;46.112;12.902;2023-12-22T00:12:17;11.73;;;7.55;;
82479;SDS011;72105;46.112;12.902;2023-12-22T00:14:43;12.32;;;7.60;;
82479;SDS011;72105;46.112;12.902;2023-12-22T00:17:09;11.35;;;7.38;;
82479;SDS011;72105;46.112;12.902;2023-12-22T00:19:35;13.13;;;6.82;;
82479;SDS011;72105;46.112;12.902;2023-12-22T00:22:02;13.82;;;7.45;;
82479;SDS011;72105;46.112;12.902;2023-12-22T00:24:28;9.77;;;7.10;;
82479;SDS011;72105;46.112;12.902;2023-12-22T00:26:54;10.68;;;6.72;;
82479;SDS011;72105;46.112;12.902;2023-12-22T00:29:20;15.23;;;8.32;;
82479;SDS011;72105;46.112;12.902;2023-12-22T00:31:47;10.15;;;6.18;;
82479;SDS011;72105;46.112;12.902;2023-12-22T00:34:13;12.93;;;7.30;;
82479;SDS011;72105;46.112;12.902;2023-12-22T00:36:39;10.10;;;6.60;;
82479;SDS011;72105;46.112;12.902;2023-12-22T00:39:05;11.20;;;6.78;;
82479;SDS011;72105;46.112;12.902;2023-12-22T00:41:32;15.18;;;9.13;;
82479;SDS011;72105;46.112;12.902;2023-12-22T00:43:58;11.43;;;7.05;;
82479;SDS011;72105;46.112;12.902;2023-12-22T00:46:24;12.52;;;7.32;;
82479;SDS011;72105;46.112;12.902;2023-12-22T00:48:51;10.82;;;6.65;;
82479;SDS011;72105;46.112;12.902;2023-12-22T00:51:17;11.02;;;7.15;;
82479;SDS011;72105;46.112;12.902;2023-12-22T00:53:43;10.95;;;6.45;;
82479;SDS011;72105;46.112;12.902;2023-12-22T00:56:09;11.02;;;7.03;;
82479;SDS011;72105;46.112;12.902;2023-12-22T00:58:38;12.02;;;7.20;;
82479;SDS011;72105;46.112;12.902;2023-12-22T01:01:04;10.60;;;7.35;;
82479;SDS011;72105;46.112;12.902;2023-12-22T01:03:30;12.68;;;6.10;;
82479;SDS011;72105;46.112;12.902;2023-12-22T01:05:56;9.02;;;6.32;;
82479;SDS011;72105;46.112;12.902;2023-12-22T01:08:22;9.68;;;6.60;;
82479;SDS011;72105;46.112;12.902;2023-12-22T01:10:48;9.40;;;6.53;;
82479;SDS011;72105;46.112;12.902;2023-12-22T01:13:14;12.55;;;7.90;;
82479;SDS011;72105;46.112;12.902;2023-12-22T01:15:40;9.55;;;6.97;;
82479;SDS011;72105;46.112;12.902;2023-12-22T01:18:08;10.10;;;5.93;;
82479;SDS011;72105;46.112;12.902;2023-12-22T01:20:34;11.48;;;6.82;;
82479;SDS011;72105;46.112;12.902;2023-12-22T01:23:01;9.68;;;6.15;;
82479;SDS011;72105;46.112;12.902;2023-12-22T01:25:27;9.38;;;5.82;;
82479;SDS011;72105;46.112;12.902;2023-12-22T01:27:53;8.43;;;5.30;;
82479;SDS011;72105;46.112;12.902;2023-12-22T01:30:19;8.52;;;5.80;;
82479;SDS011;72105;46.112;12.902;2023-12-22T01:32:45;9.50;;;5.70;;
82479;SDS011;72105;46.112;12.902;2023-12-22T01:35:12;7.75;;;5.22;;
82479;SDS011;72105;46.112;12.902;2023-12-22T01:37:39;8.38;;;5.50;;
82479;SDS011;72105;46.112;12.902;2023-12-22T01:40:05;9.10;;;5.47;;
82479;SDS011;72105;46.112;12.902;2023-12-22T01:42:32;7.78;;;5.43;;
82479;SDS011;72105;46.112;12.902;2023-12-22T01:44:58;7.72;;;4.85;;
82479;SDS011;72105;46.112;12.902;2023-12-22T01:47:24;9.63;;;5.97;;
82479;SDS011;72105;46.112;12.902;2023-12-22T01:49:51;7.30;;;4.97;;
82479;SDS011;72105;46.112;12.902;2023-12-22T01:52:17;10.32;;;6.72;;
82479;SDS011;72105;46.112;12.902;2023-12-22T01:54:43;9.98;;;5.28;;
82479;SDS011;72105;46.112;12.902;2023-12-22T01:57:11;4.85;;;3.40;;
82479;SDS011;72105;46.112;12.902;2023-12-22T01:59:38;6.28;;;4.28;;
82479;SDS011;72105;46.112;12.902;2023-12-22T02:02:10;9.43;;;5.72;;
82479;SDS011;72105;46.112;12.902;2023-12-22T02:04:36;7.57;;;5.15;;
82479;SDS011;72105;46.112;12.902;2023-12-22T02:07:03;8.90;;;5.38;;
82479;SDS011;72105;46.112;12.902;2023-12-22T02:09:29;10.57;;;6.32;;
82479;SDS011;72105;46.112;12.902;2023-12-22T02:11:55;10.68;;;6.20;;
82479;SDS011;72105;46.112;12.902;2023-12-22T02:14:21;7.43;;;4.97;;
82479;SDS011;72105;46.112;12.902;2023-12-22T02:19:27;9.18;;;4.88;;
82479;SDS011;72105;46.112;12.902;2023-12-22T02:22:03;9.25;;;5.30;;
82479;SDS011;72105;46.112;12.902;2023-12-22T02:24:29;8.25;;;4.97;;
82479;SDS011;72105;46.112;12.902;2023-12-22T02:26:55;6.85;;;4.75;;
82479;SDS011;72105;46.112;12.902;2023-12-22T02:29:24;9.00;;;5.45;;
82479;SDS011;72105;46.112;12.902;2023-12-22T02:31:51;7.63;;;5.03;;
82479;SDS011;72105;46.112;12.902;2023-12-22T02:34:19;8.63;;;4.70;;
82479;SDS011;72105;46.112;12.902;2023-12-22T02:36:45;6.28;;;5.03;;
82479;SDS011;72105;46.112;12.902;2023-12-22T02:39:13;8.35;;;5.50;;
82479;SDS011;72105;46.112;12.902;2023-12-22T02:41:40;7.53;;;4.68;;
82479;SDS011;72105;46.112;12.902;2023-12-22T02:44:06;7.43;;;4.95;;
82479;SDS011;72105;46.112;12.902;2023-12-22T02:46:33;8.13;;;5.03;;
82479;SDS011;72105;46.112;12.902;2023-12-22T02:48:59;9.63;;;5.72;;
82479;SDS011;72105;46.112;12.902;2023-12-22T02:51:26;8.02;;;4.82;;
82479;SDS011;72105;46.112;12.902;2023-12-22T02:53:52;6.90;;;4.32;;
82479;SDS011;72105;46.112;12.902;2023-12-22T02:56:18;7.38;;;4.68;;
82479;SDS011;72105;46.112;12.902;2023-12-22T02:58:44;7.43;;;4.90;;
82479;SDS011;72105;46.112;12.902;2023-12-22T03:01:10;8.57;;;5.18;;
82479;SDS011;72105;46.112;12.902;2023-12-22T03:03:36;8.25;;;4.60;;
82479;SDS011;72105;46.112;12.902;2023-12-22T03:06:03;3.30;;;2.65;;
82479;SDS011;72105;46.112;12.902;2023-12-22T03:08:29;4.15;;;2.35;;
82479;SDS011;72105;46.112;12.902;2023-12-22T03:10:55;6.53;;;4.05;;
82479;SDS011;72105;46.112;12.902;2023-12-22T03:13:21;9.32;;;4.88;;
82479;SDS011;72105;46.112;12.902;2023-12-22T03:15:47;8.85;;;5.22;;
82479;SDS011;72105;46.112;12.902;2023-12-22T03:18:13;9.65;;;5.03;;
82479;SDS011;72105;46.112;12.902;2023-12-22T03:20:39;6.95;;;4.75;;
82479;SDS011;72105;46.112;12.902;2023-12-22T03:23:05;7.50;;;4.72;;
82479;SDS011;72105;46.112;12.902;2023-12-22T03:25:31;6.93;;;4.60;;
82479;SDS011;72105;46.112;12.902;2023-12-22T03:27:57;7.90;;;5.00;;
82479;SDS011;72105;46.112;12.902;2023-12-22T03:30:23;8.07;;;5.50;;
82479;SDS011;72105;46.112;12.902;2023-12-22T03:32:50;7.40;;;4.55;;
82479;SDS011;72105;46.112;12.902;2023-12-22T03:35:16;7.82;;;4.45;;
82479;SDS011;72105;46.112;12.902;2023-12-22T03:37:42;7.10;;;4.43;;
82479;SDS011;72105;46.112;12.902;2023-12-22T03:40:08;7.40;;;4.45;;
82479;SDS011;72105;46.112;12.902;2023-12-22T03:42:34;6.93;;;3.90;;
82479;SDS011;72105;46.112;12.902;2023-12-22T03:45:01;8.55;;;4.40;;
82479;SDS011;72105;46.112;12.902;2023-12-22T03:47:27;7.55;;;4.38;;
82479;SDS011;72105;46.112;12.902;2023-12-22T03:49:53;5.05;;;4.32;;
82479;SDS011;72105;46.112;12.902;2023-12-22T03:52:19;6.25;;;4.75;;
82479;SDS011;72105;46.112;12.902;2023-12-22T03:54:45;7.35;;;4.93;;
82479;SDS011;72105;46.112;12.902;2023-12-22T03:57:11;7.93;;;4.60;;
82479;SDS011;72105;46.112;12.902;2023-12-22T03:59:37;5.93;;;4.63;;
82479;SDS011;72105;46.112;12.902;2023-12-22T04:02:06;8.35;;;4.85;;
82479;SDS011;72105;46.112;12.902;2023-12-22T04:04:32;7.72;;;4.68;;
82479;SDS011;72105;46.112;12.902;2023-12-22T04:06:58;7.53;;;4.60;;
82479;SDS011;72105;46.112;12.902;2023-12-22T04:09:24;5.82;;;4.05;;
82479;SDS011;72105;46.112;12.902;2023-12-22T04:11:51;6.45;;;4.57;;
82479;SDS011;72105;46.112;12.902;2023-12-22T04:14:17;7.75;;;5.38;;
82479;SDS011;72105;46.112;12.902;2023-12-22T04:16:43;7.18;;;4.20;;
82479;SDS011;72105;46.112;12.902;2023-12-22T04:19:09;7.80;;;5.20;;
82479;SDS011;72105;46.112;12.902;2023-12-22T04:21:35;8.95;;;5.50;;
82479;SDS011;72105;46.112;12.902;2023-12-22T04:24:01;6.82;;;4.40;;
82479;SDS011;72105;46.112;12.902;2023-12-22T04:26:28;5.95;;;4.13;;
82479;SDS011;72105;46.112;12.902;2023-12-22T04:28:54;6.03;;;4.28;;
82479;SDS011;72105;46.112;12.902;2023-12-22T04:31:20;4.18;;;3.75;;
82479;SDS011;72105;46.112;12.902;2023-12-22T04:33:46;6.75;;;4.18;;
82479;SDS011;72105;46.112;12.902;2023-12-22T04:36:12;5.05;;;4.28;;
82479;SDS011;72105;46.112;12.902;2023-12-22T04:38:39;6.25;;;3.97;;
82479;SDS011;72105;46.112;12.902;2023-12-22T04:41:06;6.18;;;3.85;;
82479;SDS011;72105;46.112;12.902;2023-12-22T04:43:32;5.05;;;3.92;;
82479;SDS011;72105;46.112;12.902;2023-12-22T04:45:58;5.38;;;3.72;;
82479;SDS011;72105;46.112;12.902;2023-12-22T04:48:24;7.43;;;4.13;;
82479;SDS011;72105;46.112;12.902;2023-12-22T04:50:50;7.85;;;4.40;;
82479;SDS011;72105;46.112;12.902;2023-12-22T04:53:16;7.10;;;3.75;;
82479;SDS011;72105;46.112;12.902;2023-12-22T04:55:43;7.60;;;4.05;;
82479;SDS011;72105;46.112;12.902;2023-12-22T04:58:09;8.32;;;4.47;;
82479;SDS011;72105;46.112;12.902;2023-12-22T05:00:35;7.20;;;4.13;;
82479;SDS011;72105;46.112;12.902;2023-12-22T05:03:01;4.72;;;3.63;;
82479;SDS011;72105;46.112;12.902;2023-12-22T05:05:28;5.28;;;3.47;;
82479;SDS011;72105;46.112;12.902;2023-12-22T05:07:54;6.55;;;4.47;;
82479;SDS011;72105;46.112;12.902;2023-12-22T05:10:20;7.53;;;3.80;;
82479;SDS011;72105;46.112;12.902;2023-12-22T05:12:46;6.68;;;4.25;;
82479;SDS011;72105;46.112;12.902;2023-12-22T05:15:12;5.15;;;3.88;;
82479;SDS011;72105;46.112;12.902;2023-12-22T05:17:38;5.15;;;3.75;;
82479;SDS011;72105;46.112;12.902;2023-12-22T05:20:06;5.95;;;3.85;;
82479;SDS011;72105;46.112;12.902;2023-12-22T05:22:32;6.28;;;3.80;;
82479;SDS011;72105;46.112;12.902;2023-12-22T05:24:58;5.47;;;3.60;;
82479;SDS011;72105;46.112;12.902;2023-12-22T05:27:25;5.20;;;3.70;;
82479;SDS011;72105;46.112;12.902;2023-12-22T05:29:52;6.40;;;4.65;;
82479;SDS011;72105;46.112;12.902;2023-12-22T05:32:18;7.03;;;3.92;;
82479;SDS011;72105;46.112;12.902;2023-12-22T05:34:44;7.38;;;4.47;;
82479;SDS011;72105;46.112;12.902;2023-12-22T05:37:10;5.55;;;4.03;;
82479;SDS011;72105;46.112;12.902;2023-12-22T05:39:36;4.78;;;3.60;;
82479;SDS011;72105;46.112;12.902;2023-12-22T05:42:03;5.35;;;3.67;;
82479;SDS011;72105;46.112;12.902;2023-12-22T05:44:29;6.63;;;3.95;;
82479;SDS011;72105;46.112;12.902;2023-12-22T05:46:58;10.00;;;4.97;;
82479;SDS011;72105;46.112;12.902;2023-12-22T05:49:24;5.15;;;3.90;;
82479;SDS011;72105;46.112;12.902;2023-12-22T05:51:50;6.20;;;4.20;;
82479;SDS011;72105;46.112;12.902;2023-12-22T05:54:17;5.20;;;3.78;;
82479;SDS011;72105;46.112;12.902;2023-12-22T05:56:44;8.57;;;3.67;;
82479;SDS011;72105;46.112;12.902;2023-12-22T05:59:10;7.18;;;4.70;;
82479;SDS011;72105;46.112;12.902;2023-12-22T06:01:36;7.22;;;4.80;;
82479;SDS011;72105;46.112;12.902;2023-12-22T06:04:03;8.40;;;5.10;;
82479;SDS011;72105;46.112;12.902;2023-12-22T06:06:29;7.28;;;5.28;;
82479;SDS011;72105;46.112;12.902;2023-12-22T06:08:55;5.90;;;4.50;;
82479;SDS011;72105;46.112;12.902;2023-12-22T06:11:21;9.30;;;4.55;;
82479;SDS011;72105;46.112;12.902;2023-12-22T06:13:47;6.25;;;4.60;;
82479;SDS011;72105;46.112;12.902;2023-12-22T06:16:14;7.47;;;4.82;;
82479;SDS011;72105;46.112;12.902;2023-12-22T06:18:40;6.18;;;4.45;;
82479;SDS011;72105;46.112;12.902;2023-12-22T06:21:07;6.47;;;4.10;;
82479;SDS011;72105;46.112;12.902;2023-12-22T06:23:33;7.32;;;4.82;;
82479;SDS011;72105;46.112;12.902;2023-12-22T06:25:59;6.65;;;4.45;;
82479;SDS011;72105;46.112;12.902;2023-12-22T06:28:27;10.02;;;5.60;;
82479;SDS011;72105;46.112;12.902;2023-12-22T06:30:53;7.80;;;4.53;;
82479;SDS011;72105;46.112;12.902;2023-12-22T06:33:19;8.43;;;4.60;;
82479;SDS011;72105;46.112;12.902;2023-12-22T06:35:46;7.32;;;4.32;;
82479;SDS011;72105;46.112;12.902;2023-12-22T06:38:12;7.93;;;4.10;;
82479;SDS011;72105;46.112;12.902;2023-12-22T06:40:38;9.02;;;5.05;;
82479;SDS011;72105;46.112;12.902;2023-12-22T06:43:04;9.23;;;5.72;;
82479;SDS011;72105;46.112;12.902;2023-12-22T06:45:30;10.55;;;5.63;;
82479;SDS011;72105;46.112;12.902;2023-12-22T06:47:56;8.27;;;4.75;;
82479;SDS011;72105;46.112;12.902;2023-12-22T06:50:22;11.00;;;6.03;;
82479;SDS011;72105;46.112;12.902;2023-12-22T06:52:48;7.97;;;4.68;;
82479;SDS011;72105;46.112;12.902;2023-12-22T06:55:16;8.45;;;4.25;;
82479;SDS011;72105;46.112;12.902;2023-12-22T06:57:42;8.75;;;5.15;;
82479;SDS011;72105;46.112;12.902;2023-12-22T07:00:08;8.77;;;5.25;;
82479;SDS011;72105;46.112;12.902;2023-12-22T07:02:34;7.85;;;4.60;;
82479;SDS011;72105;46.112;12.902;2023-12-22T07:07:48;10.57;;;5.50;;
82479;SDS011;72105;46.112;12.902;2023-12-22T07:10:15;8.98;;;4.97;;
82479;SDS011;72105;46.112;12.902;2023-12-22T07:12:42;9.40;;;5.85;;
82479;SDS011;72105;46.112;12.902;2023-12-22T07:15:08;8.88;;;5.43;;
82479;SDS011;72105;46.112;12.902;2023-12-22T07:17:34;7.25;;;4.88;;
82479;SDS011;72105;46.112;12.902;2023-12-22T07:20:00;7.38;;;5.05;;
82479;SDS011;72105;46.112;12.902;2023-12-22T07:22:28;8.45;;;5.78;;
82479;SDS011;72105;46.112;12.902;2023-12-22T07:24:54;7.15;;;5.93;;
82479;SDS011;72105;46.112;12.902;2023-12-22T07:27:21;6.53;;;4.65;;
82479;SDS011;72105;46.112;12.902;2023-12-22T07:29:47;13.15;;;6.38;;
82479;SDS011;72105;46.112;12.902;2023-12-22T07:32:14;7.55;;;4.75;;
82479;SDS011;72105;46.112;12.902;2023-12-22T07:34:40;8.55;;;5.35;;
82479;SDS011;72105;46.112;12.902;2023-12-22T07:37:06;6.20;;;4.82;;
82479;SDS011;72105;46.112;12.902;2023-12-22T07:39:33;8.65;;;4.85;;
82479;SDS011;72105;46.112;12.902;2023-12-22T07:41:59;8.88;;;4.82;;
82479;SDS011;72105;46.112;12.902;2023-12-22T07:44:25;6.57;;;4.45;;
82479;SDS011;72105;46.112;12.902;2023-12-22T07:46:58;7.22;;;4.80;;
82479;SDS011;72105;46.112;12.902;2023-12-22T07:49:24;7.43;;;4.18;;
82479;SDS011;72105;46.112;12.902;2023-12-22T07:51:51;6.40;;;4.32;;
82479;SDS011;72105;46.112;12.902;2023-12-22T07:54:17;6.53;;;3.58;;
82479;SDS011;72105;46.112;12.902;2023-12-22T07:56:43;5.35;;;3.30;;
82479;SDS011;72105;46.112;12.902;2023-12-22T07:59:10;5.45;;;4.00;;
82479;SDS011;72105;46.112;12.902;2023-12-22T08:01:36;5.95;;;3.72;;
82479;SDS011;72105;46.112;12.902;2023-12-22T08:04:02;10.43;;;4.22;;
82479;SDS011;72105;46.112;12.902;2023-12-22T08:06:29;9.68;;;4.03;;
82479;SDS011;72105;46.112;12.902;2023-12-22T08:08:55;6.45;;;3.95;;
82479;SDS011;72105;46.112;12.902;2023-12-22T08:11:21;7.60;;;4.28;;
82479;SDS011;72105;46.112;12.902;2023-12-22T08:13:50;6.88;;;4.63;;
82479;SDS011;72105;46.112;12.902;2023-12-22T08:16:16;7.40;;;3.72;;
82479;SDS011;72105;46.112;12.902;2023-12-22T08:18:42;7.68;;;4.97;;
82479;SDS011;72105;46.112;12.902;2023-12-22T08:21:08;6.65;;;4.32;;
82479;SDS011;72105;46.112;12.902;2023-12-22T08:23:34;6.68;;;3.78;;
82479;SDS011;72105;46.112;12.902;2023-12-22T08:26:00;11.35;;;3.90;;
82479;SDS011;72105;46.112;12.902;2023-12-22T08:28:26;7.28;;;4.43;;
82479;SDS011;72105;46.112;12.902;2023-12-22T08:30:52;7.68;;;5.13;;
82479;SDS011;72105;46.112;12.902;2023-12-22T08:33:19;6.38;;;3.55;;
82479;SDS011;72105;46.112;12.902;2023-12-22T08:35:45;8.15;;;4.68;;
82479;SDS011;72105;46.112;12.902;2023-12-22T08:38:11;16.05;;;5.18;;
82479;SDS011;72105;46.112;12.902;2023-12-22T08:40:38;8.10;;;3.72;;
82479;SDS011;72105;46.112;12.902;2023-12-22T08:43:04;5.18;;;3.75;;
82479;SDS011;72105;46.112;12.902;2023-12-22T08:45:31;5.93;;;4.20;;
82479;SDS011;72105;46.112;12.902;2023-12-22T08:47:58;5.75;;;4.35;;
82479;SDS011;72105;46.112;12.902;2023-12-22T08:50:24;5.13;;;3.47;;
82479;SDS011;72105;46.112;12.902;2023-12-22T08:52:52;4.90;;;3.63;;
82479;SDS011;72105;46.112;12.902;2023-12-22T08:55:18;5.85;;;3.03;;
82479;SDS011;72105;46.112;12.902;2023-12-22T08:57:44;4.60;;;3.15;;
82479;SDS011;72105;46.112;12.902;2023-12-22T09:00:10;5.72;;;3.70;;
82479;SDS011;72105;46.112;12.902;2023-12-22T09:02:36;6.20;;;3.97;;
82479;SDS011;72105;46.112;12.902;2023-12-22T09:05:02;12.38;;;6.30;;
82479;SDS011;72105;46.112;12.902;2023-12-22T09:07:30;8.77;;;5.65;;
82479;SDS011;72105;46.112;12.902;2023-12-22T09:09:56;10.18;;;5.97;;
82479;SDS011;72105;46.112;12.902;2023-12-22T09:12:23;9.70;;;5.65;;
82479;SDS011;72105;46.112;12.902;2023-12-22T09:14:49;11.40;;;6.40;;
82479;SDS011;72105;46.112;12.902;2023-12-22T09:17:16;8.20;;;5.25;;
82479;SDS011;72105;46.112;12.902;2023-12-22T09:19:42;7.50;;;4.85;;
82479;SDS011;72105;46.112;12.902;2023-12-22T09:22:08;8.82;;;5.03;;
82479;SDS011;72105;46.112;12.902;2023-12-22T09:24:34;7.47;;;4.90;;
82479;SDS011;72105;46.112;12.902;2023-12-22T09:27:16;5.30;;;4.30;;
82479;SDS011;72105;46.112;12.902;2023-12-22T09:29:42;7.57;;;4.75;;
82479;SDS011;72105;46.112;12.902;2023-12-22T09:32:09;7.72;;;5.38;;
82479;SDS011;72105;46.112;12.902;2023-12-22T09:34:35;7.15;;;5.07;;
82479;SDS011;72105;46.112;12.902;2023-12-22T09:37:01;6.35;;;4.13;;
82479;SDS011;72105;46.112;12.902;2023-12-22T09:39:27;9.77;;;5.10;;
82479;SDS011;72105;46.112;12.902;2023-12-22T09:41:54;8.45;;;5.38;;
82479;SDS011;72105;46.112;12.902;2023-12-22T09:44:20;13.45;;;7.63;;
82479;SDS011;72105;46.112;12.902;2023-12-22T09:46:50;6.28;;;5.10;;
82479;SDS011;72105;46.112;12.902;2023-12-22T09:49:17;7.15;;;4.68;;
82479;SDS011;72105;46.112;12.902;2023-12-22T09:51:45;8.15;;;5.72;;
82479;SDS011;72105;46.112;12.902;2023-12-22T09:54:11;8.18;;;5.38;;
82479;SDS011;72105;46.112;12.902;2023-12-22T09:56:38;7.07;;;4.97;;
82479;SDS011;72105;46.112;12.902;2023-12-22T09:59:13;7.40;;;5.18;;
82479;SDS011;72105;46.112;12.902;2023-12-22T10:01:43;12.48;;;6.93;;
82479;SDS011;72105;46.112;12.902;2023-12-22T10:04:12;11.48;;;6.72;;
82479;SDS011;72105;46.112;12.902;2023-12-22T10:06:38;11.70;;;7.57;;
82479;SDS011;72105;46.112;12.902;2023-12-22T10:09:05;10.68;;;6.82;;
82479;SDS011;72105;46.112;12.902;2023-12-22T10:11:33;12.00;;;8.27;;
82479;SDS011;72105;46.112;12.902;2023-12-22T10:14:00;11.77;;;8.07;;
82479;SDS011;72105;46.112;12.902;2023-12-22T10:16:27;12.32;;;7.97;;
82479;SDS011;72105;46.112;12.902;2023-12-22T10:18:53;12.75;;;8.82;;
82479;SDS011;72105;46.112;12.902;2023-12-22T10:21:20;17.20;;;9.93;;
82479;SDS011;72105;46.112;12.902;2023-12-22T10:23:46;15.27;;;9.82;;
82479;SDS011;72105;46.112;12.902;2023-12-22T10:26:12;15.23;;;9.95;;
82479;SDS011;72105;46.112;12.902;2023-12-22T10:28:38;17.13;;;10.57;;
82479;SDS011;72105;46.112;12.902;2023-12-22T10:31:05;17.80;;;11.57;;
82479;SDS011;72105;46.112;12.902;2023-12-22T10:35:59;14.13;;;9.35;;
82479;SDS011;72105;46.112;12.902;2023-12-22T10:38:34;16.42;;;9.98;;
82479;SDS011;72105;46.112;12.902;2023-12-22T10:41:00;19.13;;;10.57;;
82479;SDS011;72105;46.112;12.902;2023-12-22T10:43:27;15.57;;;9.27;;
82479;SDS011;72105;46.112;12.902;2023-12-22T10:45:53;15.27;;;10.15;;
82479;SDS011;72105;46.112;12.902;2023-12-22T10:48:19;14.30;;;10.30;;
82479;SDS011;72105;46.112;12.902;2023-12-22T10:50:45;14.02;;;9.88;;
82479;SDS011;72105;46.112;12.902;2023-12-22T10:53:12;16.67;;;10.85;;
82479;SDS011;72105;46.112;12.902;2023-12-22T10:55:38;16.45;;;10.95;;
82479;SDS011;72105;46.112;12.902;2023-12-22T10:58:05;15.43;;;10.60;;
82479;SDS011;72105;46.112;12.902;2023-12-22T11:00:33;16.73;;;10.63;;
82479;SDS011;72105;46.112;12.902;2023-12-22T11:03:01;17.00;;;11.95;;
82479;SDS011;72105;46.112;12.902;2023-12-22T11:05:31;16.27;;;11.18;;
82479;SDS011;72105;46.112;12.902;2023-12-22T11:07:59;17.55;;;12.05;;
82479;SDS011;72105;46.112;12.902;2023-12-22T11:10:28;17.65;;;12.55;;
82479;SDS011;72105;46.112;12.902;2023-12-22T11:12:57;18.50;;;12.02;;
82479;SDS011;72105;46.112;12.902;2023-12-22T11:15:24;20.55;;;12.75;;
82479;SDS011;72105;46.112;12.902;2023-12-22T11:17:52;19.45;;;11.70;;
82479;SDS011;72105;46.112;12.902;2023-12-22T11:20:18;20.10;;;11.65;;
82479;SDS011;72105;46.112;12.902;2023-12-22T11:22:44;23.77;;;14.63;;
82479;SDS011;72105;46.112;12.902;2023-12-22T11:25:11;21.30;;;13.35;;
82479;SDS011;72105;46.112;12.902;2023-12-22T11:27:37;18.52;;;12.27;;
82479;SDS011;72105;46.112;12.902;2023-12-22T11:30:06;14.63;;;9.13;;
82479;SDS011;72105;46.112;12.902;2023-12-22T11:32:33;16.88;;;9.57;;
82479;SDS011;72105;46.112;12.902;2023-12-22T11:35:00;16.65;;;10.02;;
82479;SDS011;72105;46.112;12.902;2023-12-22T11:37:27;14.85;;;10.13;;
82479;SDS011;72105;46.112;12.902;2023-12-22T11:39:57;20.05;;;11.80;;
82479;SDS011;72105;46.112;12.902;2023-12-22T11:42:25;18.83;;;10.98;;
82479;SDS011;72105;46.112;12.902;2023-12-22T11:44:53;17.00;;;11.93;;
82479;SDS011;72105;46.112;12.902;2023-12-22T11:47:22;20.50;;;11.30;;
82479;SDS011;72105;46.112;12.902;2023-12-22T11:49:48;19.48;;;11.75;;
82479;SDS011;72105;46.112;12.902;2023-12-22T11:52:18;19.63;;;11.65;;
82479;SDS011;72105;46.112;12.902;2023-12-22T11:54:48;20.23;;;10.95;;
82479;SDS011;72105;46.112;12.902;2023-12-22T11:59:54;21.52;;;12.55;;
82479;SDS011;72105;46.112;12.902;2023-12-22T12:02:20;17.98;;;11.48;;
82479;SDS011;72105;46.112;12.902;2023-12-22T12:04:56;21.60;;;11.68;;
82479;SDS011;72105;46.112;12.902;2023-12-22T12:10:06;25.75;;;14.68;;
82479;SDS011;72105;46.112;12.902;2023-12-22T12:15:05;20.15;;;12.98;;
82479;SDS011;72105;46.112;12.902;2023-12-22T12:17:32;20.38;;;10.98;;
82479;SDS011;72105;46.112;12.902;2023-12-22T12:19:58;17.88;;;11.15;;
82479;SDS011;72105;46.112;12.902;2023-12-22T12:22:25;31.83;;;17.02;;
82479;SDS011;72105;46.112;12.902;2023-12-22T12:24:51;17.75;;;10.93;;
82479;SDS011;72105;46.112;12.902;2023-12-22T12:27:18;18.35;;;11.75;;
82479;SDS011;72105;46.112;12.902;2023-12-22T12:29:45;18.08;;;11.00;;
82479;SDS011;72105;46.112;12.902;2023-12-22T12:32:13;25.05;;;13.80;;
82479;SDS011;72105;46.112;12.902;2023-12-22T12:34:42;21.00;;;12.32;;
82479;SDS011;72105;46.112;12.902;2023-12-22T12:37:08;18.20;;;10.55;;
82479;SDS011;72105;46.112;12.902;2023-12-22T12:39:35;19.25;;;11.32;;
82479;SDS011;72105;46.112;12.902;2023-12-22T12:42:01;17.42;;;10.73;;
82479;SDS011;72105;46.112;12.902;2023-12-22T12:44:32;18.50;;;10.80;;
82479;SDS011;72105;46.112;12.902;2023-12-22T12:46:59;18.52;;;11.38;;
82479;SDS011;72105;46.112;12.902;2023-12-22T12:49:25;16.65;;;11.20;;
82479;SDS011;72105;46.112;12.902;2023-12-22T12:51:54;18.52;;;11.15;;
82479;SDS011;72105;46.112;12.902;2023-12-22T12:54:20;19.70;;;10.95;;
82479;SDS011;72105;46.112;12.902;2023-12-22T12:56:46;19.50;;;11.30;;
82479;SDS011;72105;46.112;12.902;2023-12-22T12:59:14;17.45;;;10.60;;
82479;SDS011;72105;46.112;12.902;2023-12-22T13:01:40;17.27;;;9.82;;
82479;SDS011;72105;46.112;12.902;2023-12-22T13:04:06;18.40;;;11.25;;
82479;SDS011;72105;46.112;12.902;2023-12-22T13:06:33;17.27;;;10.65;;
82479;SDS011;72105;46.112;12.902;2023-12-22T13:08:59;17.50;;;11.32;;
82479;SDS011;72105;46.112;12.902;2023-12-22T13:11:26;18.05;;;10.98;;
82479;SDS011;72105;46.112;12.902;2023-12-22T13:13:52;21.02;;;11.93;;
82479;SDS011;72105;46.112;12.902;2023-12-22T13:16:22;16.58;;;11.13;;
82479;SDS011;72105;46.112;12.902;2023-12-22T13:18:54;21.13;;;11.45;;
82479;SDS011;72105;46.112;12.902;2023-12-22T13:21:20;21.38;;;12.60;;
82479;SDS011;72105;46.112;12.902;2023-12-22T13:23:47;21.98;;;13.02;;
82479;SDS011;72105;46.112;12.902;2023-12-22T13:26:19;22.88;;;12.25;;
82479;SDS011;72105;46.112;12.902;2023-12-22T13:28:45;21.63;;;12.23;;
82479;SDS011;72105;46.112;12.902;2023-12-22T13:31:12;21.38;;;11.55;;
82479;SDS011;72105;46.112;12.902;2023-12-22T13:33:43;17.58;;;11.18;;
82479;SDS011;72105;46.112;12.902;2023-12-22T13:36:10;20.52;;;12.77;;
82479;SDS011;72105;46.112;12.902;2023-12-22T13:38:37;18.85;;;11.05;;
82479;SDS011;72105;46.112;12.902;2023-12-22T13:41:03;18.50;;;11.77;;
82479;SDS011;72105;46.112;12.902;2023-12-22T13:43:30;18.85;;;12.55;;
82479;SDS011;72105;46.112;12.902;2023-12-22T13:45:56;23.98;;;13.52;;
82479;SDS011;72105;46.112;12.902;2023-12-22T13:48:23;20.73;;;12.70;;
82479;SDS011;72105;46.112;12.902;2023-12-22T13:50:56;22.90;;;13.43;;
82479;SDS011;72105;46.112;12.902;2023-12-22T13:55:59;18.38;;;12.15;;
82479;SDS011;72105;46.112;12.902;2023-12-22T13:58:25;23.98;;;13.00;;
82479;SDS011;72105;46.112;12.902;2023-12-22T14:00:52;21.30;;;13.40;;
82479;SDS011;72105;46.112;12.902;2023-12-22T14:03:18;24.63;;;13.68;;
82479;SDS011;72105;46.112;12.902;2023-12-22T14:05:52;24.73;;;13.45;;
82479;SDS011;72105;46.112;12.902;2023-12-22T14:08:18;22.23;;;13.23;;
82479;SDS011;72105;46.112;12.902;2023-12-22T14:10:45;27.17;;;15.05;;
82479;SDS011;72105;46.112;12.902;2023-12-22T14:13:14;23.13;;;13.73;;
82479;SDS011;72105;46.112;12.902;2023-12-22T14:15:44;24.80;;;15.35;;
82479;SDS011;72105;46.112;12.902;2023-12-22T14:18:10;28.80;;;15.30;;
82479;SDS011;72105;46.112;12.902;2023-12-22T14:20:36;25.88;;;15.15;;
82479;SDS011;72105;46.112;12.902;2023-12-22T14:23:02;30.02;;;16.70;;
82479;SDS011;72105;46.112;12.902;2023-12-22T14:25:29;25.92;;;14.90;;
82479;SDS011;72105;46.112;12.902;2023-12-22T14:27:57;25.45;;;15.07;;
82479;SDS011;72105;46.112;12.902;2023-12-22T14:30:24;25.70;;;14.25;;
82479;SDS011;72105;46.112;12.902;2023-12-22T14:32:50;27.10;;;15.73;;
82479;SDS011;72105;46.112;12.902;2023-12-22T14:35:16;29.67;;;16.95;;
82479;SDS011;72105;46.112;12.902;2023-12-22T14:37:42;27.70;;;16.80;;
82479;SDS011;72105;46.112;12.902;2023-12-22T14:40:10;25.17;;;16.60;;